createdAt,value
2023-01-10T00:01:29.640Z,78.10
2023-01-10T00:03:56.879Z,78.10
2023-01-10T00:06:24.380Z,78.10
2023-01-10T00:08:51.674Z,78.10
2023-01-10T00:11:37.580Z,78.20
2023-01-10T00:14:04.948Z,78.20
2023-01-10T00:16:32.370Z,78.10
2023-01-10T00:18:59.773Z,78.20
2023-01-10T00:21:28.622Z,78.20
2023-01-10T00:23:58.008Z,78.30
2023-01-10T00:26:25.491Z,78.40
2023-01-10T00:28:52.731Z,78.40
2023-01-10T00:31:20.141Z,78.50
2023-01-10T00:33:47.553Z,78.60
2023-01-10T00:36:14.938Z,78.50
2023-01-10T00:38:42.185Z,78.50
2023-01-10T00:41:29.581Z,78.40
2023-01-10T00:43:56.845Z,78.40
2023-01-10T00:46:24.648Z,78.30
2023-01-10T00:48:52.788Z,78.20
2023-01-10T00:51:20.249Z,78.00
2023-01-10T00:53:47.705Z,77.90
2023-01-10T00:56:16.409Z,77.90
2023-01-10T00:58:44.855Z,77.70
2023-01-10T01:01:12.276Z,77.70
2023-01-10T01:03:39.861Z,77.80
2023-01-10T01:06:08.122Z,77.50
2023-01-10T01:08:35.690Z,77.50
2023-01-10T01:11:03.450Z,77.20
2023-01-10T01:13:30.857Z,77.20
2023-01-10T01:15:59.351Z,77.30
2023-01-10T01:18:27.408Z,77.30
2023-01-10T01:20:57.557Z,77.30
2023-01-10T01:23:25.270Z,77.30
2023-01-10T01:25:53.123Z,78.10
2023-01-10T01:28:21.820Z,77.30
2023-01-10T01:30:49.981Z,77.30
2023-01-10T01:33:18.664Z,77.30
2023-01-10T01:35:48.094Z,77.20
2023-01-10T01:38:16.698Z,77.10
2023-01-10T01:40:44.912Z,77.10
2023-01-10T01:43:30.881Z,77.10
2023-01-10T01:46:02.350Z,77.00
2023-01-10T01:48:32.898Z,76.80
2023-01-10T01:51:05.668Z,76.90
2023-01-10T01:53:49.326Z,76.90
2023-01-10T01:56:21.921Z,76.70
2023-01-10T01:59:02.036Z,77.60
2023-01-10T02:01:31.254Z,76.80
2023-01-10T02:04:06.836Z,76.90
2023-01-10T02:06:34.358Z,77.00
2023-01-10T02:09:25.518Z,77.10
2023-01-10T02:11:54.079Z,77.00
2023-01-10T02:14:23.148Z,76.90
2023-01-10T02:16:50.588Z,76.80
2023-01-10T02:19:38.482Z,76.90
2023-01-10T02:22:20.211Z,77.00
2023-01-10T02:25:05.042Z,77.00
2023-01-10T02:27:51.399Z,77.00
2023-01-10T02:30:47.503Z,77.00
2023-01-10T02:33:29.778Z,76.90
2023-01-10T02:36:33.868Z,76.90
2023-01-10T02:39:34.168Z,76.80
2023-01-10T02:42:04.394Z,76.90
2023-01-10T02:44:58.277Z,76.70
2023-01-10T02:47:25.699Z,76.60
2023-01-10T02:49:53.014Z,76.70
2023-01-10T02:52:27.852Z,76.80
2023-01-10T02:55:01.355Z,76.80
2023-01-10T02:57:40.254Z,76.70
2023-01-10T03:00:16.682Z,76.60
2023-01-10T03:03:21.096Z,76.60
2023-01-10T03:06:11.659Z,76.50
2023-01-10T03:08:43.602Z,76.30
2023-01-10T03:11:11.932Z,76.40
2023-01-10T03:13:50.258Z,76.60
2023-01-10T03:16:21.332Z,76.50
2023-01-10T03:19:01.680Z,76.30
2023-01-10T03:21:31.103Z,76.30
2023-01-10T03:24:05.932Z,76.40
2023-01-10T03:26:47.749Z,76.20
2023-01-10T03:29:24.227Z,76.00
2023-01-10T03:31:57.276Z,76.10
2023-01-10T03:34:25.924Z,76.00
2023-01-10T03:37:13.388Z,76.00
2023-01-10T03:40:05.466Z,76.70
2023-01-10T03:43:04.748Z,76.00
2023-01-10T03:45:44.869Z,76.20
2023-01-10T03:48:14.975Z,76.10
2023-01-10T03:50:43.578Z,76.10
2023-01-10T03:53:14.017Z,76.20
2023-01-10T03:55:43.390Z,76.30
2023-01-10T03:58:10.651Z,76.20
2023-01-10T04:00:39.487Z,76.30
2023-01-10T04:03:07.000Z,76.30
2023-01-10T04:05:34.477Z,76.40
2023-01-10T04:08:01.816Z,76.30
2023-01-10T04:10:29.775Z,76.30
2023-01-10T04:13:02.630Z,76.30
2023-01-10T04:15:30.743Z,76.20
2023-01-10T04:17:58.408Z,76.20
2023-01-10T04:20:26.603Z,76.40
2023-01-10T04:22:55.029Z,76.40
2023-01-10T04:25:23.359Z,76.40
2023-01-10T04:27:51.750Z,76.50
2023-01-10T04:30:20.078Z,76.50
2023-01-10T04:32:47.678Z,76.60
2023-01-10T04:35:16.335Z,76.70
2023-01-10T04:37:43.896Z,76.70
2023-01-10T04:40:11.712Z,76.70
2023-01-10T04:42:39.033Z,76.70
2023-01-10T04:45:07.080Z,76.90
2023-01-10T04:47:34.292Z,76.90
2023-01-10T04:50:01.864Z,76.90
2023-01-10T04:52:29.117Z,77.00
2023-01-10T04:54:57.315Z,77.00
2023-01-10T04:57:24.562Z,77.10
2023-01-10T04:59:51.977Z,77.20
2023-01-10T05:02:19.556Z,77.20
2023-01-10T05:04:46.981Z,77.10
2023-01-10T05:07:14.543Z,77.20
2023-01-10T05:09:42.820Z,77.00
2023-01-10T05:12:10.352Z,76.90
2023-01-10T05:14:37.595Z,77.00
2023-01-10T05:17:05.209Z,76.90
2023-01-10T05:19:32.897Z,77.10
2023-01-10T05:22:00.235Z,77.10
2023-01-10T05:24:27.463Z,77.10
2023-01-10T05:26:54.658Z,77.10
2023-01-10T05:29:21.983Z,76.90
2023-01-10T05:31:51.418Z,77.00
2023-01-10T05:34:18.878Z,76.90
2023-01-10T05:36:46.409Z,76.90
2023-01-10T05:39:14.067Z,77.00
2023-01-10T05:41:41.275Z,77.10
2023-01-10T05:44:08.892Z,77.20
2023-01-10T05:46:36.178Z,77.20
2023-01-10T05:49:03.677Z,77.10
2023-01-10T05:51:31.145Z,77.10
2023-01-10T05:53:58.826Z,77.10
2023-01-10T05:56:26.706Z,77.10
2023-01-10T05:59:05.294Z,77.10
2023-01-10T06:01:34.172Z,77.20
2023-01-10T06:04:01.541Z,77.20
2023-01-10T06:06:28.873Z,77.40
2023-01-10T06:08:58.997Z,77.10
2023-01-10T06:11:30.009Z,76.90
2023-01-10T06:13:58.079Z,76.80
2023-01-10T06:16:25.489Z,76.80
2023-01-10T06:18:52.862Z,76.80
2023-01-10T06:21:20.417Z,76.80
2023-01-10T06:23:47.776Z,76.60
2023-01-10T06:26:15.456Z,76.60
2023-01-10T06:28:42.793Z,76.50
2023-01-10T06:31:10.620Z,76.50
2023-01-10T06:33:39.008Z,76.30
2023-01-10T06:36:06.785Z,76.30
2023-01-10T06:38:34.327Z,76.10
2023-01-10T06:41:12.907Z,76.10
2023-01-10T06:43:46.166Z,76.00
2023-01-10T06:46:16.561Z,75.70
2023-01-10T06:48:45.618Z,75.70
2023-01-10T06:51:15.548Z,75.60
2023-01-10T06:53:43.434Z,75.50
2023-01-10T06:56:11.200Z,75.60
2023-01-10T06:58:38.934Z,75.70
2023-01-10T07:01:08.128Z,75.80
2023-01-10T07:03:35.678Z,75.90
2023-01-10T07:06:03.427Z,76.00
2023-01-10T07:08:30.817Z,76.10
2023-01-10T07:10:59.692Z,76.20
2023-01-10T07:13:27.066Z,76.40
2023-01-10T07:16:11.844Z,76.60
2023-01-10T07:18:41.279Z,76.60
2023-01-10T07:21:10.113Z,76.80
2023-01-10T07:23:38.294Z,76.90
2023-01-10T07:26:09.711Z,76.80
2023-01-10T07:28:37.602Z,76.70
2023-01-10T07:31:06.139Z,76.80
2023-01-10T07:33:33.816Z,76.80
2023-01-10T07:36:01.857Z,76.80
2023-01-10T07:38:29.678Z,76.60
2023-01-10T07:40:57.111Z,76.60
2023-01-10T07:43:24.559Z,76.60
2023-01-10T07:45:52.091Z,76.60
2023-01-10T07:48:19.510Z,76.60
2023-01-10T07:50:46.854Z,76.40
2023-01-10T07:53:14.303Z,76.30
2023-01-10T07:55:43.458Z,76.30
2023-01-10T07:58:10.885Z,76.30
2023-01-10T08:00:38.564Z,76.30
2023-01-10T08:03:07.339Z,76.30
2023-01-10T08:05:34.913Z,76.20
2023-01-10T08:08:10.901Z,76.10
2023-01-10T08:10:41.399Z,76.00
2023-01-10T08:13:18.331Z,76.10
2023-01-10T08:15:50.122Z,75.90
2023-01-10T08:18:17.747Z,75.90
2023-01-10T08:20:47.942Z,75.80
2023-01-10T08:23:15.903Z,75.60
2023-01-10T08:25:43.459Z,75.60
2023-01-10T08:28:12.680Z,75.60
2023-01-10T08:30:40.626Z,75.70
2023-01-10T08:33:08.933Z,75.70
2023-01-10T08:35:38.260Z,75.70
2023-01-10T08:38:06.105Z,75.60
2023-01-10T08:40:33.731Z,75.60
2023-01-10T08:43:04.064Z,75.80
2023-01-10T08:45:32.298Z,75.80
2023-01-10T08:48:00.153Z,75.80
2023-01-10T08:50:28.010Z,75.80
2023-01-10T08:52:58.356Z,75.70
2023-01-10T08:55:27.300Z,75.60
2023-01-10T08:57:55.118Z,75.50
2023-01-10T09:00:23.158Z,75.50
2023-01-10T09:02:51.027Z,75.50
2023-01-10T09:05:26.977Z,75.50
2023-01-10T09:08:02.906Z,75.50
2023-01-10T09:10:30.759Z,75.10
2023-01-10T09:13:01.390Z,74.90
2023-01-10T09:15:34.431Z,75.10
2023-01-10T09:18:07.025Z,75.00
2023-01-10T09:20:37.107Z,75.00
2023-01-10T09:23:17.682Z,74.70
2023-01-10T09:25:47.043Z,74.50
2023-01-10T09:28:14.520Z,74.60
2023-01-10T09:30:42.450Z,74.70
2023-01-10T09:33:10.446Z,74.70
2023-01-10T09:35:40.576Z,74.10
2023-01-10T09:38:12.723Z,74.20
2023-01-10T09:40:58.700Z,74.10
2023-01-10T09:44:10.651Z,73.60
2023-01-10T09:47:21.476Z,73.90
2023-01-10T09:50:11.580Z,73.60
2023-01-10T09:52:44.795Z,73.40
2023-01-10T09:55:38.902Z,73.10
2023-01-10T09:58:19.153Z,73.10
2023-01-10T10:00:58.900Z,72.90
2023-01-10T10:03:55.131Z,73.00
2023-01-10T10:06:23.750Z,72.80
2023-01-10T10:08:53.064Z,72.70
2023-01-10T10:11:26.233Z,72.70
2023-01-10T10:13:59.377Z,72.80
2023-01-10T10:16:48.581Z,72.90
2023-01-10T10:19:32.817Z,72.80
2023-01-10T10:22:19.091Z,72.90
2023-01-10T10:25:12.514Z,72.90
2023-01-10T10:28:04.672Z,72.90
2023-01-10T10:30:59.793Z,72.50
2023-01-10T10:33:50.529Z,72.30
2023-01-10T10:36:26.981Z,72.50
2023-01-10T10:38:59.957Z,72.60
2023-01-10T10:41:38.574Z,72.50
2023-01-10T10:44:34.400Z,72.30
2023-01-10T10:47:02.551Z,72.30
2023-01-10T10:49:48.377Z,72.40
2023-01-10T10:52:27.522Z,72.50
2023-01-10T10:54:55.232Z,72.60
2023-01-10T10:57:27.682Z,72.70
2023-01-10T10:59:56.425Z,72.60
2023-01-10T11:02:29.823Z,72.50
2023-01-10T11:05:00.727Z,72.20
2023-01-10T11:07:37.259Z,71.90
2023-01-10T11:10:15.106Z,71.50
2023-01-10T11:12:48.002Z,71.50
2023-01-10T11:15:46.682Z,71.50
2023-01-10T11:18:17.191Z,71.40
2023-01-10T11:21:03.488Z,71.50
2023-01-10T11:23:43.321Z,71.40
2023-01-10T11:26:37.481Z,71.80
2023-01-10T11:29:24.266Z,71.70
2023-01-10T11:31:58.142Z,71.90
2023-01-10T11:34:29.929Z,71.90
2023-01-10T11:37:29.093Z,71.80
2023-01-10T11:40:28.965Z,71.60
2023-01-10T11:42:59.453Z,71.60
2023-01-10T11:45:32.764Z,71.50
2023-01-10T11:48:34.212Z,71.40
2023-01-10T11:51:22.912Z,71.60
2023-01-10T11:54:01.496Z,71.70
2023-01-10T11:56:37.554Z,71.60
2023-01-10T11:59:15.229Z,71.40
2023-01-10T12:01:48.780Z,71.00
2023-01-10T12:04:17.943Z,71.20
2023-01-10T12:06:49.679Z,71.50
2023-01-10T12:09:43.372Z,71.80
2023-01-10T12:12:19.535Z,72.00
2023-01-10T12:14:48.333Z,72.20
2023-01-10T12:17:30.805Z,72.40
2023-01-10T12:20:01.363Z,72.50
2023-01-10T12:22:37.213Z,72.40
2023-01-10T12:25:18.873Z,72.20
2023-01-10T12:27:50.145Z,72.20
2023-01-10T12:30:30.309Z,71.90
2023-01-10T12:33:00.390Z,71.70
2023-01-10T12:35:52.837Z,71.40
2023-01-10T12:39:01.213Z,71.30
2023-01-10T12:41:53.241Z,71.30
2023-01-10T12:44:27.486Z,71.50
2023-01-10T12:47:22.478Z,71.70
2023-01-10T12:49:56.834Z,71.50
2023-01-10T12:52:45.572Z,71.70
2023-01-10T12:55:18.305Z,71.70
2023-01-10T12:57:53.758Z,71.70
2023-01-10T13:00:30.977Z,72.00
2023-01-10T13:03:03.357Z,72.00
2023-01-10T13:05:32.272Z,71.90
2023-01-10T13:08:04.764Z,71.90
2023-01-10T13:10:35.316Z,72.00
2023-01-10T13:13:39.335Z,72.10
2023-01-10T13:16:16.010Z,72.20
2023-01-10T13:19:01.603Z,72.40
2023-01-10T13:21:30.974Z,72.60
2023-01-10T13:24:01.974Z,72.70
2023-01-10T13:26:56.426Z,72.80
2023-01-10T13:29:30.365Z,72.90
2023-01-10T13:32:01.575Z,72.80
2023-01-10T13:34:36.277Z,72.70
2023-01-10T13:37:21.432Z,72.90
2023-01-10T13:39:56.946Z,73.40
2023-01-10T13:42:45.783Z,73.70
2023-01-10T13:45:13.514Z,73.80
2023-01-10T13:47:48.428Z,73.90
2023-01-10T13:50:25.794Z,73.90
2023-01-10T13:52:54.941Z,73.90
2023-01-10T13:55:42.596Z,73.90
2023-01-10T13:58:14.566Z,74.10
2023-01-10T14:01:04.421Z,74.10
2023-01-10T14:03:48.417Z,73.90
2023-01-10T14:06:27.740Z,74.00
2023-01-10T14:09:06.666Z,74.00
2023-01-10T14:11:43.230Z,74.30
2023-01-10T14:14:29.893Z,74.40
2023-01-10T14:17:10.550Z,74.70
2023-01-10T14:19:39.331Z,75.00
2023-01-10T14:22:18.500Z,75.00
2023-01-10T14:24:52.722Z,75.00
2023-01-10T14:27:22.699Z,75.10
2023-01-10T14:29:52.888Z,75.10
2023-01-10T14:32:35.742Z,75.00
2023-01-10T14:35:06.880Z,74.90
2023-01-10T14:37:38.465Z,74.70
2023-01-10T14:40:32.268Z,74.30
2023-01-10T14:43:04.353Z,74.00
2023-01-10T14:45:35.063Z,73.90
2023-01-10T14:48:29.195Z,73.80
2023-01-10T14:51:25.680Z,73.40
2023-01-10T14:54:15.525Z,73.20
2023-01-10T14:56:53.588Z,73.00
2023-01-10T14:59:29.585Z,73.20
2023-01-10T15:02:00.558Z,73.10
2023-01-10T15:04:32.703Z,73.10
2023-01-10T15:07:11.630Z,73.00
2023-01-10T15:09:39.348Z,72.50
2023-01-10T15:12:12.489Z,72.70
2023-01-10T15:14:39.993Z,72.70
2023-01-10T15:17:12.838Z,73.00
2023-01-10T15:19:40.663Z,72.90
2023-01-10T15:22:29.199Z,73.00
2023-01-10T15:25:20.862Z,72.80
2023-01-10T15:27:50.371Z,72.80
2023-01-10T15:30:22.881Z,72.90
2023-01-10T15:32:53.935Z,72.80
2023-01-10T15:35:35.286Z,72.80
2023-01-10T15:38:07.637Z,72.80
2023-01-10T15:40:38.933Z,72.80
2023-01-10T15:43:18.268Z,72.80
2023-01-10T15:45:46.507Z,73.50
2023-01-10T15:48:33.590Z,72.90
2023-01-10T15:51:30.462Z,72.70
2023-01-10T15:54:04.164Z,72.70
2023-01-10T15:56:54.186Z,72.60
2023-01-10T15:59:26.168Z,72.60
2023-01-10T16:01:55.080Z,72.70
2023-01-10T16:04:23.038Z,72.50
2023-01-10T16:06:54.844Z,72.60
2023-01-10T16:09:22.923Z,72.70
2023-01-10T16:12:11.005Z,72.60
2023-01-10T16:14:38.432Z,72.60
2023-01-10T16:17:06.968Z,72.70
2023-01-10T16:19:34.672Z,72.50
2023-01-10T16:22:02.143Z,72.60
2023-01-10T16:24:32.875Z,72.70
2023-01-10T16:27:05.880Z,72.80
2023-01-10T16:29:33.950Z,72.90
2023-01-10T16:32:01.612Z,73.20
2023-01-10T16:34:29.667Z,73.30
2023-01-10T16:36:57.123Z,73.30
2023-01-10T16:39:24.753Z,73.50
2023-01-10T16:42:10.756Z,73.50
2023-01-10T16:44:38.265Z,73.50
2023-01-10T16:47:07.095Z,73.50
2023-01-10T16:49:34.726Z,73.50
2023-01-10T16:52:03.172Z,73.70
2023-01-10T16:54:31.065Z,73.60
2023-01-10T16:56:58.940Z,73.60
2023-01-10T16:59:26.335Z,73.80
2023-01-10T17:01:56.592Z,73.90
2023-01-10T17:04:27.966Z,74.10
2023-01-10T17:06:56.607Z,74.00
2023-01-10T17:09:27.398Z,74.10
2023-01-10T17:12:02.570Z,74.20
2023-01-10T17:14:32.409Z,74.10
2023-01-10T17:16:59.888Z,74.20
2023-01-10T17:19:27.429Z,74.30
2023-01-10T17:21:55.297Z,74.20
2023-01-10T17:24:22.844Z,73.80
2023-01-10T17:26:50.311Z,73.60
2023-01-10T17:29:17.726Z,73.50
2023-01-10T17:31:45.148Z,73.50
2023-01-10T17:34:12.647Z,73.50
2023-01-10T17:36:40.019Z,73.50
2023-01-10T17:39:07.521Z,73.40
2023-01-10T17:41:35.768Z,73.50
2023-01-10T17:44:03.150Z,73.40
2023-01-10T17:46:30.622Z,73.20
2023-01-10T17:48:58.067Z,73.00
2023-01-10T17:51:26.887Z,73.00
2023-01-10T17:53:57.620Z,73.00
2023-01-10T17:56:25.197Z,73.70
2023-01-10T17:58:53.571Z,73.00
2023-01-10T18:01:25.845Z,72.90
2023-01-10T18:03:53.993Z,73.00
2023-01-10T18:06:25.282Z,72.90
2023-01-10T18:08:53.730Z,72.90
2023-01-10T18:11:24.860Z,72.80
2023-01-10T18:13:52.524Z,72.80
2023-01-10T18:16:19.977Z,72.90
2023-01-10T18:18:47.685Z,73.00
2023-01-10T18:21:18.346Z,73.10
2023-01-10T18:23:46.750Z,73.20
2023-01-10T18:26:14.547Z,73.30
2023-01-10T18:28:44.463Z,73.40
2023-01-10T18:31:17.771Z,73.40
2023-01-10T18:33:46.550Z,73.60
2023-01-10T18:36:20.346Z,73.60
2023-01-10T18:38:48.599Z,73.80
2023-01-10T18:41:17.365Z,73.90
2023-01-10T18:43:44.777Z,73.90
2023-01-10T18:46:21.218Z,73.90
2023-01-10T18:48:51.470Z,74.00
2023-01-10T18:51:19.247Z,74.00
2023-01-10T18:53:47.516Z,74.00
2023-01-10T18:56:15.973Z,74.00
2023-01-10T18:58:43.350Z,74.00
2023-01-10T19:01:16.609Z,74.00
2023-01-10T19:03:44.655Z,74.10
2023-01-10T19:06:15.964Z,74.10
2023-01-10T19:08:44.888Z,74.10
2023-01-10T19:11:15.664Z,74.20
2023-01-10T19:13:49.009Z,74.20
2023-01-10T19:16:29.014Z,74.40
2023-01-10T19:19:02.404Z,74.50
2023-01-10T19:21:31.670Z,74.60
2023-01-10T19:24:19.268Z,74.70
2023-01-10T19:26:46.491Z,74.70
2023-01-10T19:29:13.755Z,74.70
2023-01-10T19:31:42.342Z,74.80
2023-01-10T19:34:12.148Z,74.90
2023-01-10T19:36:41.432Z,74.80
2023-01-10T19:39:09.681Z,74.90
2023-01-10T19:41:38.169Z,74.90
2023-01-10T19:44:13.181Z,75.00
2023-01-10T19:46:40.751Z,75.00
2023-01-10T19:49:08.475Z,75.10
2023-01-10T19:51:38.280Z,75.00
2023-01-10T19:54:07.527Z,74.90
2023-01-10T19:56:35.993Z,74.90
2023-01-10T19:59:03.632Z,74.90
2023-01-10T20:01:32.035Z,74.90
2023-01-10T20:04:02.136Z,74.80
2023-01-10T20:06:32.274Z,74.80
2023-01-10T20:08:59.548Z,74.90
2023-01-10T20:11:37.073Z,74.90
2023-01-10T20:14:05.813Z,74.90
2023-01-10T20:16:33.546Z,75.00
2023-01-10T20:19:00.965Z,75.00
2023-01-10T20:21:28.380Z,75.10
2023-01-10T20:23:55.791Z,75.10
2023-01-10T20:26:27.864Z,75.10
2023-01-10T20:29:01.522Z,75.20
2023-01-10T20:31:29.586Z,75.20
2023-01-10T20:33:56.880Z,75.10
2023-01-10T20:36:25.719Z,75.20
2023-01-10T20:38:53.497Z,75.30
2023-01-10T20:41:24.139Z,75.30
2023-01-10T20:43:51.889Z,75.10
2023-01-10T20:46:26.245Z,75.10
2023-01-10T20:48:55.545Z,75.10
2023-01-10T20:51:27.231Z,75.10
2023-01-10T20:53:55.114Z,75.10
2023-01-10T20:56:24.642Z,75.10
2023-01-10T20:58:53.461Z,75.10
2023-01-10T21:01:33.682Z,75.00
2023-01-10T21:04:03.390Z,75.00
2023-01-10T21:06:30.998Z,75.00
2023-01-10T21:08:58.841Z,75.10
2023-01-10T21:11:26.484Z,75.20
2023-01-10T21:13:53.890Z,75.10
2023-01-10T21:16:22.341Z,75.00
2023-01-10T21:18:50.511Z,74.90
2023-01-10T21:21:20.696Z,74.80
2023-01-10T21:23:48.258Z,74.70
2023-01-10T21:26:16.423Z,74.80
2023-01-10T21:28:49.280Z,74.70
2023-01-10T21:31:19.488Z,74.70
2023-01-10T21:33:48.077Z,74.80
2023-01-10T21:36:15.832Z,74.80
2023-01-10T21:38:44.064Z,74.70
2023-01-10T21:41:14.587Z,74.60
2023-01-10T21:43:46.149Z,74.50
2023-01-10T21:46:13.688Z,74.50
2023-01-10T21:48:41.181Z,74.40
2023-01-10T21:51:08.705Z,74.50
2023-01-10T21:53:36.994Z,74.40
2023-01-10T21:56:04.789Z,74.40
2023-01-10T21:58:32.823Z,74.40
2023-01-10T22:01:00.298Z,74.40
2023-01-10T22:03:27.878Z,74.40
2023-01-10T22:05:55.308Z,74.30
2023-01-10T22:08:22.828Z,74.20
2023-01-10T22:10:50.301Z,74.30
2023-01-10T22:13:17.687Z,74.30
2023-01-10T22:15:45.278Z,74.30
2023-01-10T22:18:12.656Z,74.40
2023-01-10T22:20:43.908Z,74.40
2023-01-10T22:23:11.269Z,74.40
2023-01-10T22:25:38.729Z,74.30
2023-01-10T22:28:06.454Z,74.40
2023-01-10T22:30:33.936Z,74.40
2023-01-10T22:33:01.683Z,74.30
2023-01-10T22:35:29.238Z,74.20
2023-01-10T22:37:56.775Z,74.20
2023-01-10T22:40:24.284Z,74.20
2023-01-10T22:42:54.714Z,74.20
2023-01-10T22:45:22.227Z,74.30
2023-01-10T22:47:50.476Z,74.30
2023-01-10T22:50:18.531Z,74.30
2023-01-10T22:52:50.104Z,74.40
2023-01-10T22:55:18.300Z,74.40
2023-01-10T22:57:47.550Z,74.50
2023-01-10T23:00:16.319Z,74.60
2023-01-10T23:02:43.766Z,74.60
2023-01-10T23:05:11.334Z,74.60
2023-01-10T23:07:38.602Z,74.60
2023-01-10T23:10:17.269Z,74.40
2023-01-10T23:12:51.921Z,74.50
2023-01-10T23:15:19.197Z,74.50
2023-01-10T23:17:46.489Z,74.20
2023-01-10T23:20:14.043Z,74.00
2023-01-10T23:22:41.451Z,74.10
2023-01-10T23:25:09.444Z,73.60
2023-01-10T23:27:38.359Z,73.40
2023-01-10T23:30:07.669Z,73.30
2023-01-10T23:32:35.137Z,73.20
2023-01-10T23:35:02.390Z,73.20
2023-01-10T23:37:29.814Z,73.30
2023-01-10T23:39:57.076Z,73.30
2023-01-10T23:42:24.293Z,73.30
2023-01-10T23:44:51.635Z,73.30
2023-01-10T23:47:18.905Z,73.20
2023-01-10T23:49:46.209Z,73.10
2023-01-10T23:52:14.827Z,72.90
2023-01-10T23:54:42.107Z,72.80
2023-01-10T23:57:10.708Z,72.80
2023-01-10T23:59:37.917Z,72.80
